Impacts METAR Board INFO
IDs:

KBWI - Baltimore-Washington, MD, US

Updated at: 1526 UTC 19 Jan 2018
Potential Impact None Slight Moderate High
Time19/03Z 19/04Z 19/05Z 19/06Z 19/07Z 19/08Z 19/09Z 19/10Z 19/11Z 19/12Z 19/13Z 19/14Z 19/15Z
VIS10 10 10 10 10 10 10 10 10 10 10 10 10
CIG-- -- -- -- -- -- -- -- -- -- -- -- 250
CoverCLRCLRCLRCLRFEWFEWCLRCLRFEWSCTSCTSCTBKN
FltCatVFRVFRVFRVFRVFRVFRVFRVFRVFRVFRVFRVFRVFR
WX--------------------------
WDir230270230220230023000000270
WSpd3 4 3 4 3 0 3 0 0 0 0 0 6
WGst-- -- -- -- -- -- -- -- -- -- -- -- --
Raw hourly METARs
KBWI 190254Z 23003KT 10SM CLR M01/M13 A3011 RMK AO2 SLP197 T10061133 53015
KBWI 190354Z 27004KT 10SM CLR M01/M12 A3011 RMK AO2 SLP199 T10061122
KBWI 190454Z 23003KT 10SM CLR M01/M13 A3011 RMK AO2 SLP198 T10111133 400561117
KBWI 190554Z 22004KT 10SM CLR M02/M12 A3010 RMK AO2 SLP194 T10221122 10022 21033 58003
KBWI 190654Z 23003KT 10SM FEW250 M04/M12 A3009 RMK AO2 SLP191 T10391117
KBWI 190754Z 00000KT 10SM FEW250 M04/M11 A3009 RMK AO2 SLP190 T10441106
KBWI 190854Z 23003KT 10SM CLR M04/M11 A3008 RMK AO2 SLP188 T10391106 57006
KBWI 190954Z 00000KT 10SM CLR M05/M10 A3009 RMK AO2 SLP190 T10501100
KBWI 191054Z 00000KT 10SM FEW250 M06/M10 A3010 RMK AO2 SLP193 T10561100
KBWI 191154Z 00000KT 10SM FEW160 SCT250 M06/M10 A3011 RMK AO2 SLP198 T10611100 11022 21067 53010
KBWI 191254Z 00000KT 10SM SCT120 SCT160 SCT250 M06/M09 A3012 RMK AO2 SLP201 T10561094
KBWI 191354Z 00000KT 10SM FEW120 SCT160 SCT250 01/M07 A3012 RMK AO2 SLP201 T00061067
KBWI 191454Z 27006KT 10SM FEW090 SCT160 BKN250 04/M10 A3013 RMK AO2 SLP205 T00441100 53007